aviador You're here:

KLNK Decoded Metar

LINCOLN in NE, USA
Report Time2018-05-23 15:54:00
UTC Time2018-05-23 16:42:57
Flight Rules vfr VFR
Wind190° at 12 kt
W.Decomp.*RWY 18: 12.0 kt HW 0.8 kt RCW
RWY 17: 11.6 kt HW 2.9 kt RCW
RWY 14: 8.6 kt HW 8.3 kt RCW
W.Rank190° ranks 6
Current wind is above 190° avg. (10.4)
Visibility9999 m
Phenomena:N/A
Clouds:N/A
Expected CloudBase > 4,000 ft AGL from Temp-Dew spread
CeilingNone
Temp29°C (ISA +16)
Dew Point19°C (55% RH)
Heat Index30.3°C
AAT27.9°C
QNH1017 hPa
Density Alt3,232 ft
Elevation1,194 ft
Report Wrong Elevation
Raw Report
KLNK 231554Z 19012KT 10SM CLR 29/19 A3004 RMK AO2 SLP162
T02890194=

Extra information for KLNK:More info

Metar Taf Metar & Taf Last 4 Metars F.Rules Stats Wind Profile Meteogram Temp Stats Airport Information Weather charts Add Link Nearby VenuesMetar ALERT Operation Metar Decoded Social comments

AIRNAV info for KLNK